sensor_id;sensor_type;location;lat;lon;timestamp;temperature;humidity
56512;DHT22;42408;53.238;5.686;2023-06-22T00:00:27;17.60;99.90
56512;DHT22;42408;53.238;5.686;2023-06-22T00:02:52;17.60;99.90
56512;DHT22;42408;53.238;5.686;2023-06-22T00:05:18;17.60;99.90
56512;DHT22;42408;53.238;5.686;2023-06-22T00:07:43;17.50;99.90
56512;DHT22;42408;53.238;5.686;2023-06-22T00:10:09;17.40;99.90
56512;DHT22;42408;53.238;5.686;2023-06-22T00:12:34;17.30;99.90
56512;DHT22;42408;53.238;5.686;2023-06-22T00:15:00;17.30;99.90
56512;DHT22;42408;53.238;5.686;2023-06-22T00:17:25;17.30;99.90
56512;DHT22;42408;53.238;5.686;2023-06-22T00:19:51;17.30;99.90
56512;DHT22;42408;53.238;5.686;2023-06-22T00:22:19;17.30;99.90
56512;DHT22;42408;53.238;5.686;2023-06-22T00:24:54;17.30;99.90
56512;DHT22;42408;53.238;5.686;2023-06-22T00:27:19;17.30;99.90
56512;DHT22;42408;53.238;5.686;2023-06-22T00:29:45;17.40;99.90
56512;DHT22;42408;53.238;5.686;2023-06-22T00:32:10;17.40;99.90
56512;DHT22;42408;53.238;5.686;2023-06-22T00:34:36;17.40;99.90
56512;DHT22;42408;53.238;5.686;2023-06-22T00:37:01;17.50;99.90
56512;DHT22;42408;53.238;5.686;2023-06-22T00:39:27;17.50;99.90
56512;DHT22;42408;53.238;5.686;2023-06-22T00:41:53;17.60;99.90
56512;DHT22;42408;53.238;5.686;2023-06-22T00:44:18;17.60;99.90
56512;DHT22;42408;53.238;5.686;2023-06-22T00:46:44;17.60;99.90
56512;DHT22;42408;53.238;5.686;2023-06-22T00:49:09;17.70;99.90
56512;DHT22;42408;53.238;5.686;2023-06-22T00:51:35;17.70;99.90
56512;DHT22;42408;53.238;5.686;2023-06-22T00:54:03;17.70;99.90
56512;DHT22;42408;53.238;5.686;2023-06-22T00:56:30;17.70;99.90
56512;DHT22;42408;53.238;5.686;2023-06-22T00:58:57;17.70;99.90
56512;DHT22;42408;53.238;5.686;2023-06-22T01:01:24;17.80;99.90
56512;DHT22;42408;53.238;5.686;2023-06-22T01:03:50;17.80;99.90
56512;DHT22;42408;53.238;5.686;2023-06-22T01:06:17;17.80;99.90
56512;DHT22;42408;53.238;5.686;2023-06-22T01:08:46;17.80;99.90
56512;DHT22;42408;53.238;5.686;2023-06-22T01:16:24;17.90;99.90
56512;DHT22;42408;53.238;5.686;2023-06-22T01:18:51;17.90;99.90
56512;DHT22;42408;53.238;5.686;2023-06-22T01:21:18;17.90;99.90
56512;DHT22;42408;53.238;5.686;2023-06-22T01:26:17;17.90;99.90
56512;DHT22;42408;53.238;5.686;2023-06-22T01:31:16;17.90;99.90
56512;DHT22;42408;53.238;5.686;2023-06-22T01:33:44;17.90;99.90
56512;DHT22;42408;53.238;5.686;2023-06-22T01:36:10;17.90;99.90
56512;DHT22;42408;53.238;5.686;2023-06-22T01:38:37;17.90;99.90
56512;DHT22;42408;53.238;5.686;2023-06-22T01:41:03;17.80;99.90
56512;DHT22;42408;53.238;5.686;2023-06-22T01:43:29;17.80;99.90
56512;DHT22;42408;53.238;5.686;2023-06-22T01:45:55;17.70;99.90
56512;DHT22;42408;53.238;5.686;2023-06-22T01:48:22;17.70;99.90
56512;DHT22;42408;53.238;5.686;2023-06-22T01:50:47;17.70;99.90
56512;DHT22;42408;53.238;5.686;2023-06-22T01:53:13;17.70;99.90
56512;DHT22;42408;53.238;5.686;2023-06-22T01:55:39;17.70;99.90
56512;DHT22;42408;53.238;5.686;2023-06-22T01:58:04;17.70;99.90
56512;DHT22;42408;53.238;5.686;2023-06-22T02:00:31;17.70;99.90
56512;DHT22;42408;53.238;5.686;2023-06-22T02:05:54;17.60;99.90
56512;DHT22;42408;53.238;5.686;2023-06-22T02:08:22;17.60;99.90
56512;DHT22;42408;53.238;5.686;2023-06-22T02:10:49;17.50;99.90
56512;DHT22;42408;53.238;5.686;2023-06-22T02:13:16;17.50;99.90
56512;DHT22;42408;53.238;5.686;2023-06-22T02:15:41;17.50;99.90
56512;DHT22;42408;53.238;5.686;2023-06-22T02:18:07;17.50;99.90
56512;DHT22;42408;53.238;5.686;2023-06-22T02:20:35;17.50;99.90
56512;DHT22;42408;53.238;5.686;2023-06-22T02:23:01;17.50;99.90
56512;DHT22;42408;53.238;5.686;2023-06-22T02:25:27;17.50;99.90
56512;DHT22;42408;53.238;5.686;2023-06-22T02:27:52;17.40;99.90
56512;DHT22;42408;53.238;5.686;2023-06-22T02:30:18;17.40;99.90
56512;DHT22;42408;53.238;5.686;2023-06-22T02:32:43;17.40;99.90
56512;DHT22;42408;53.238;5.686;2023-06-22T02:35:09;17.40;99.90
56512;DHT22;42408;53.238;5.686;2023-06-22T02:37:35;17.40;99.90
56512;DHT22;42408;53.238;5.686;2023-06-22T02:40:01;17.40;99.90
56512;DHT22;42408;53.238;5.686;2023-06-22T02:42:28;17.40;99.90
56512;DHT22;42408;53.238;5.686;2023-06-22T02:44:54;17.30;99.90
56512;DHT22;42408;53.238;5.686;2023-06-22T02:47:19;17.30;99.90
56512;DHT22;42408;53.238;5.686;2023-06-22T02:49:45;17.40;99.90
56512;DHT22;42408;53.238;5.686;2023-06-22T02:52:11;17.30;99.90
56512;DHT22;42408;53.238;5.686;2023-06-22T02:54:36;17.40;99.90
56512;DHT22;42408;53.238;5.686;2023-06-22T02:57:02;17.30;99.90
56512;DHT22;42408;53.238;5.686;2023-06-22T02:59:28;17.30;99.90
56512;DHT22;42408;53.238;5.686;2023-06-22T03:01:53;17.40;99.90
56512;DHT22;42408;53.238;5.686;2023-06-22T03:04:19;17.30;99.90
56512;DHT22;42408;53.238;5.686;2023-06-22T03:06:44;17.40;99.90
56512;DHT22;42408;53.238;5.686;2023-06-22T03:09:16;17.30;99.90
56512;DHT22;42408;53.238;5.686;2023-06-22T03:11:42;17.40;99.90
56512;DHT22;42408;53.238;5.686;2023-06-22T03:14:07;17.40;99.90
56512;DHT22;42408;53.238;5.686;2023-06-22T03:16:33;17.40;99.90
56512;DHT22;42408;53.238;5.686;2023-06-22T03:18:59;17.40;99.90
56512;DHT22;42408;53.238;5.686;2023-06-22T03:21:26;17.40;99.90
56512;DHT22;42408;53.238;5.686;2023-06-22T03:23:52;17.40;99.90
56512;DHT22;42408;53.238;5.686;2023-06-22T03:26:18;17.40;99.90
56512;DHT22;42408;53.238;5.686;2023-06-22T03:28:44;17.40;99.90
56512;DHT22;42408;53.238;5.686;2023-06-22T03:31:09;17.40;99.90
56512;DHT22;42408;53.238;5.686;2023-06-22T03:33:35;17.40;99.90
56512;DHT22;42408;53.238;5.686;2023-06-22T03:36:00;17.40;99.90
56512;DHT22;42408;53.238;5.686;2023-06-22T03:38:26;17.40;99.90
56512;DHT22;42408;53.238;5.686;2023-06-22T03:40:52;17.40;99.90
56512;DHT22;42408;53.238;5.686;2023-06-22T03:43:17;17.40;99.90
56512;DHT22;42408;53.238;5.686;2023-06-22T03:45:43;17.30;99.90
56512;DHT22;42408;53.238;5.686;2023-06-22T03:48:11;17.30;99.90
56512;DHT22;42408;53.238;5.686;2023-06-22T03:50:36;17.30;99.90
56512;DHT22;42408;53.238;5.686;2023-06-22T03:53:02;17.30;99.90
56512;DHT22;42408;53.238;5.686;2023-06-22T03:55:27;17.30;99.90
56512;DHT22;42408;53.238;5.686;2023-06-22T03:57:53;17.30;99.90
56512;DHT22;42408;53.238;5.686;2023-06-22T04:00:22;17.30;99.90
56512;DHT22;42408;53.238;5.686;2023-06-22T04:02:48;17.20;99.90
56512;DHT22;42408;53.238;5.686;2023-06-22T04:05:13;17.20;99.90
56512;DHT22;42408;53.238;5.686;2023-06-22T04:07:39;17.20;99.90
56512;DHT22;42408;53.238;5.686;2023-06-22T04:10:05;17.20;99.90
56512;DHT22;42408;53.238;5.686;2023-06-22T04:12:30;17.10;99.90
56512;DHT22;42408;53.238;5.686;2023-06-22T04:14:56;17.10;99.90
56512;DHT22;42408;53.238;5.686;2023-06-22T04:17:21;17.00;99.90
56512;DHT22;42408;53.238;5.686;2023-06-22T04:19:50;16.90;99.90
56512;DHT22;42408;53.238;5.686;2023-06-22T04:22:16;16.90;99.90
56512;DHT22;42408;53.238;5.686;2023-06-22T04:24:41;16.90;99.90
56512;DHT22;42408;53.238;5.686;2023-06-22T04:27:07;16.90;99.90
56512;DHT22;42408;53.238;5.686;2023-06-22T04:29:32;16.90;99.90
56512;DHT22;42408;53.238;5.686;2023-06-22T04:31:58;16.90;99.90
56512;DHT22;42408;53.238;5.686;2023-06-22T04:34:28;16.90;99.90
56512;DHT22;42408;53.238;5.686;2023-06-22T04:36:54;16.80;99.90
56512;DHT22;42408;53.238;5.686;2023-06-22T04:39:19;16.80;99.90
56512;DHT22;42408;53.238;5.686;2023-06-22T04:41:45;16.80;99.90
56512;DHT22;42408;53.238;5.686;2023-06-22T04:44:14;16.80;99.90
56512;DHT22;42408;53.238;5.686;2023-06-22T04:46:49;16.80;99.90
56512;DHT22;42408;53.238;5.686;2023-06-22T04:49:19;16.90;99.90
56512;DHT22;42408;53.238;5.686;2023-06-22T04:51:47;16.90;99.90
56512;DHT22;42408;53.238;5.686;2023-06-22T04:54:13;17.00;99.90
56512;DHT22;42408;53.238;5.686;2023-06-22T04:56:38;17.00;99.90
56512;DHT22;42408;53.238;5.686;2023-06-22T04:59:06;17.00;99.90
56512;DHT22;42408;53.238;5.686;2023-06-22T05:01:32;17.00;99.90
56512;DHT22;42408;53.238;5.686;2023-06-22T05:03:58;17.00;99.90
56512;DHT22;42408;53.238;5.686;2023-06-22T05:06:26;17.10;99.90
56512;DHT22;42408;53.238;5.686;2023-06-22T05:08:55;17.20;99.90
56512;DHT22;42408;53.238;5.686;2023-06-22T05:11:27;17.20;99.90
56512;DHT22;42408;53.238;5.686;2023-06-22T05:13:52;17.20;99.90
56512;DHT22;42408;53.238;5.686;2023-06-22T05:16:18;17.30;99.90
56512;DHT22;42408;53.238;5.686;2023-06-22T05:18:52;17.30;99.90
56512;DHT22;42408;53.238;5.686;2023-06-22T05:21:22;17.40;99.90
56512;DHT22;42408;53.238;5.686;2023-06-22T05:23:48;17.40;99.90
56512;DHT22;42408;53.238;5.686;2023-06-22T05:26:14;17.50;99.90
56512;DHT22;42408;53.238;5.686;2023-06-22T05:28:39;17.60;99.90
56512;DHT22;42408;53.238;5.686;2023-06-22T05:31:05;17.70;99.90
56512;DHT22;42408;53.238;5.686;2023-06-22T05:33:30;17.70;99.90
56512;DHT22;42408;53.238;5.686;2023-06-22T05:35:56;17.80;99.90
56512;DHT22;42408;53.238;5.686;2023-06-22T05:38:22;17.90;99.90
56512;DHT22;42408;53.238;5.686;2023-06-22T05:40:47;18.00;99.90
56512;DHT22;42408;53.238;5.686;2023-06-22T05:43:13;18.10;99.90
56512;DHT22;42408;53.238;5.686;2023-06-22T05:45:38;18.10;99.90
56512;DHT22;42408;53.238;5.686;2023-06-22T05:48:04;18.20;99.90
56512;DHT22;42408;53.238;5.686;2023-06-22T05:50:30;18.30;99.90
56512;DHT22;42408;53.238;5.686;2023-06-22T05:52:55;18.30;99.90
56512;DHT22;42408;53.238;5.686;2023-06-22T05:55:21;18.40;99.90
56512;DHT22;42408;53.238;5.686;2023-06-22T05:57:46;18.50;99.90
56512;DHT22;42408;53.238;5.686;2023-06-22T06:00:12;18.50;99.90
56512;DHT22;42408;53.238;5.686;2023-06-22T06:02:38;18.60;99.90
56512;DHT22;42408;53.238;5.686;2023-06-22T06:05:11;18.60;99.90
56512;DHT22;42408;53.238;5.686;2023-06-22T06:07:39;18.70;99.90
56512;DHT22;42408;53.238;5.686;2023-06-22T06:10:04;18.80;99.90
56512;DHT22;42408;53.238;5.686;2023-06-22T06:12:31;18.90;99.90
56512;DHT22;42408;53.238;5.686;2023-06-22T06:14:57;18.90;99.90
56512;DHT22;42408;53.238;5.686;2023-06-22T06:17:22;19.00;99.90
56512;DHT22;42408;53.238;5.686;2023-06-22T06:19:48;19.10;99.90
56512;DHT22;42408;53.238;5.686;2023-06-22T06:22:13;19.10;99.90
56512;DHT22;42408;53.238;5.686;2023-06-22T06:24:39;19.20;99.90
56512;DHT22;42408;53.238;5.686;2023-06-22T06:27:04;19.30;99.90
56512;DHT22;42408;53.238;5.686;2023-06-22T06:29:30;19.30;99.90
56512;DHT22;42408;53.238;5.686;2023-06-22T06:31:56;19.50;99.90
56512;DHT22;42408;53.238;5.686;2023-06-22T06:34:22;19.70;99.90
56512;DHT22;42408;53.238;5.686;2023-06-22T06:36:47;20.10;99.90
56512;DHT22;42408;53.238;5.686;2023-06-22T06:39:13;20.70;99.90
56512;DHT22;42408;53.238;5.686;2023-06-22T06:41:38;21.50;99.90
56512;DHT22;42408;53.238;5.686;2023-06-22T06:44:04;22.40;99.90
56512;DHT22;42408;53.238;5.686;2023-06-22T06:46:30;23.10;99.90
56512;DHT22;42408;53.238;5.686;2023-06-22T06:48:55;23.80;99.90
56512;DHT22;42408;53.238;5.686;2023-06-22T06:51:21;24.30;99.90
56512;DHT22;42408;53.238;5.686;2023-06-22T06:53:46;24.90;99.90
56512;DHT22;42408;53.238;5.686;2023-06-22T06:56:12;25.60;99.90
56512;DHT22;42408;53.238;5.686;2023-06-22T06:58:40;26.00;99.90
56512;DHT22;42408;53.238;5.686;2023-06-22T07:01:06;26.60;99.90
56512;DHT22;42408;53.238;5.686;2023-06-22T07:03:31;27.20;99.90
56512;DHT22;42408;53.238;5.686;2023-06-22T07:05:58;27.40;99.90
56512;DHT22;42408;53.238;5.686;2023-06-22T07:08:24;27.60;99.90
56512;DHT22;42408;53.238;5.686;2023-06-22T07:10:49;28.40;99.90
56512;DHT22;42408;53.238;5.686;2023-06-22T07:13:15;28.70;99.90
56512;DHT22;42408;53.238;5.686;2023-06-22T07:15:40;29.30;99.90
56512;DHT22;42408;53.238;5.686;2023-06-22T07:18:06;29.60;99.90
56512;DHT22;42408;53.238;5.686;2023-06-22T07:20:32;29.80;99.90
56512;DHT22;42408;53.238;5.686;2023-06-22T07:22:57;29.70;99.90
56512;DHT22;42408;53.238;5.686;2023-06-22T07:25:23;30.00;99.90
56512;DHT22;42408;53.238;5.686;2023-06-22T07:27:59;30.40;99.90
56512;DHT22;42408;53.238;5.686;2023-06-22T07:30:25;30.60;99.90
56512;DHT22;42408;53.238;5.686;2023-06-22T07:32:50;30.70;99.90
56512;DHT22;42408;53.238;5.686;2023-06-22T07:35:16;30.40;99.90
56512;DHT22;42408;53.238;5.686;2023-06-22T07:37:44;30.60;99.90
56512;DHT22;42408;53.238;5.686;2023-06-22T07:40:10;30.40;99.90
56512;DHT22;42408;53.238;5.686;2023-06-22T07:42:35;30.30;99.90
56512;DHT22;42408;53.238;5.686;2023-06-22T07:45:02;30.50;99.90
56512;DHT22;42408;53.238;5.686;2023-06-22T07:47:27;30.40;99.90
56512;DHT22;42408;53.238;5.686;2023-06-22T07:49:58;30.60;99.90
56512;DHT22;42408;53.238;5.686;2023-06-22T07:52:24;30.80;99.90
56512;DHT22;42408;53.238;5.686;2023-06-22T07:54:50;30.60;99.90
56512;DHT22;42408;53.238;5.686;2023-06-22T07:57:16;30.80;99.20
56512;DHT22;42408;53.238;5.686;2023-06-22T07:59:41;31.00;97.70
56512;DHT22;42408;53.238;5.686;2023-06-22T08:02:07;30.90;99.90
56512;DHT22;42408;53.238;5.686;2023-06-22T08:04:34;30.90;99.90
56512;DHT22;42408;53.238;5.686;2023-06-22T08:07:00;30.80;97.40
56512;DHT22;42408;53.238;5.686;2023-06-22T08:09:27;30.90;97.70
56512;DHT22;42408;53.238;5.686;2023-06-22T08:11:53;31.10;97.90
56512;DHT22;42408;53.238;5.686;2023-06-22T08:14:20;31.00;97.80
56512;DHT22;42408;53.238;5.686;2023-06-22T08:16:46;30.90;98.10
56512;DHT22;42408;53.238;5.686;2023-06-22T08:19:12;30.90;96.60
56512;DHT22;42408;53.238;5.686;2023-06-22T08:21:37;30.70;97.70
56512;DHT22;42408;53.238;5.686;2023-06-22T08:24:03;30.40;98.20
56512;DHT22;42408;53.238;5.686;2023-06-22T08:26:29;30.30;99.90
56512;DHT22;42408;53.238;5.686;2023-06-22T08:28:54;30.10;98.60
56512;DHT22;42408;53.238;5.686;2023-06-22T08:31:20;30.00;99.90
56512;DHT22;42408;53.238;5.686;2023-06-22T08:33:45;29.90;98.90
56512;DHT22;42408;53.238;5.686;2023-06-22T08:36:11;29.70;99.90
56512;DHT22;42408;53.238;5.686;2023-06-22T08:38:38;29.60;98.80
56512;DHT22;42408;53.238;5.686;2023-06-22T08:41:04;29.50;99.40
56512;DHT22;42408;53.238;5.686;2023-06-22T08:43:29;29.50;99.90
56512;DHT22;42408;53.238;5.686;2023-06-22T08:45:55;29.30;99.90
56512;DHT22;42408;53.238;5.686;2023-06-22T08:48:20;29.20;99.90
56512;DHT22;42408;53.238;5.686;2023-06-22T08:50:46;29.20;99.90
56512;DHT22;42408;53.238;5.686;2023-06-22T08:53:11;29.30;99.60
56512;DHT22;42408;53.238;5.686;2023-06-22T08:55:37;29.40;99.70
56512;DHT22;42408;53.238;5.686;2023-06-22T08:58:02;29.30;98.30
56512;DHT22;42408;53.238;5.686;2023-06-22T09:00:29;29.40;99.90
56512;DHT22;42408;53.238;5.686;2023-06-22T09:02:58;29.40;99.90
56512;DHT22;42408;53.238;5.686;2023-06-22T09:05:24;29.50;99.60
56512;DHT22;42408;53.238;5.686;2023-06-22T09:07:51;29.50;97.70
56512;DHT22;42408;53.238;5.686;2023-06-22T09:10:17;29.60;99.00
56512;DHT22;42408;53.238;5.686;2023-06-22T09:12:42;29.60;99.90
56512;DHT22;42408;53.238;5.686;2023-06-22T09:15:08;29.60;99.90
56512;DHT22;42408;53.238;5.686;2023-06-22T09:17:34;29.50;97.10
56512;DHT22;42408;53.238;5.686;2023-06-22T09:20:00;29.60;97.40
56512;DHT22;42408;53.238;5.686;2023-06-22T09:22:27;29.70;98.70
56512;DHT22;42408;53.238;5.686;2023-06-22T09:24:57;29.80;96.50
56512;DHT22;42408;53.238;5.686;2023-06-22T09:27:23;29.90;99.10
56512;DHT22;42408;53.238;5.686;2023-06-22T09:29:49;30.10;98.40
56512;DHT22;42408;53.238;5.686;2023-06-22T09:32:14;30.10;98.00
56512;DHT22;42408;53.238;5.686;2023-06-22T09:34:40;30.20;96.50
56512;DHT22;42408;53.238;5.686;2023-06-22T09:37:06;30.00;95.00
56512;DHT22;42408;53.238;5.686;2023-06-22T09:39:32;29.50;95.50
56512;DHT22;42408;53.238;5.686;2023-06-22T09:41:58;29.20;99.00
56512;DHT22;42408;53.238;5.686;2023-06-22T09:44:24;29.10;97.20
56512;DHT22;42408;53.238;5.686;2023-06-22T09:46:50;29.20;98.60
56512;DHT22;42408;53.238;5.686;2023-06-22T09:49:15;29.10;96.40
56512;DHT22;42408;53.238;5.686;2023-06-22T09:51:41;28.90;95.40
56512;DHT22;42408;53.238;5.686;2023-06-22T09:54:06;28.80;98.10
56512;DHT22;42408;53.238;5.686;2023-06-22T09:56:32;28.70;98.50
56512;DHT22;42408;53.238;5.686;2023-06-22T09:58:57;28.70;97.60
56512;DHT22;42408;53.238;5.686;2023-06-22T10:01:23;28.70;97.20
56512;DHT22;42408;53.238;5.686;2023-06-22T10:03:50;28.60;95.80
56512;DHT22;42408;53.238;5.686;2023-06-22T10:06:15;28.50;97.00
56512;DHT22;42408;53.238;5.686;2023-06-22T10:08:41;28.50;98.90
56512;DHT22;42408;53.238;5.686;2023-06-22T10:11:06;28.60;98.20
56512;DHT22;42408;53.238;5.686;2023-06-22T10:13:32;28.60;97.40
56512;DHT22;42408;53.238;5.686;2023-06-22T10:15:57;28.60;98.70
56512;DHT22;42408;53.238;5.686;2023-06-22T10:18:23;28.70;97.90
56512;DHT22;42408;53.238;5.686;2023-06-22T10:20:49;28.50;95.20
56512;DHT22;42408;53.238;5.686;2023-06-22T10:23:18;28.30;96.70
56512;DHT22;42408;53.238;5.686;2023-06-22T10:25:44;28.20;96.60
56512;DHT22;42408;53.238;5.686;2023-06-22T10:28:10;28.10;99.00
56512;DHT22;42408;53.238;5.686;2023-06-22T10:30:35;28.10;96.00
56512;DHT22;42408;53.238;5.686;2023-06-22T10:33:01;28.20;97.00
56512;DHT22;42408;53.238;5.686;2023-06-22T10:35:26;28.30;97.40
56512;DHT22;42408;53.238;5.686;2023-06-22T10:37:52;28.40;97.20
56512;DHT22;42408;53.238;5.686;2023-06-22T10:40:17;28.40;96.70
56512;DHT22;42408;53.238;5.686;2023-06-22T10:42:44;28.50;97.70
56512;DHT22;42408;53.238;5.686;2023-06-22T10:45:10;28.60;98.50
56512;DHT22;42408;53.238;5.686;2023-06-22T10:47:35;28.70;97.50
56512;DHT22;42408;53.238;5.686;2023-06-22T10:50:01;28.60;95.60
56512;DHT22;42408;53.238;5.686;2023-06-22T10:52:27;28.40;95.00
56512;DHT22;42408;53.238;5.686;2023-06-22T10:54:53;28.20;94.80
56512;DHT22;42408;53.238;5.686;2023-06-22T10:57:18;28.30;96.80
56512;DHT22;42408;53.238;5.686;2023-06-22T10:59:44;28.20;95.70
56512;DHT22;42408;53.238;5.686;2023-06-22T11:02:09;28.00;95.30
56512;DHT22;42408;53.238;5.686;2023-06-22T11:04:35;28.00;95.70
56512;DHT22;42408;53.238;5.686;2023-06-22T11:07:00;27.90;95.40
56512;DHT22;42408;53.238;5.686;2023-06-22T11:09:26;27.90;96.60
56512;DHT22;42408;53.238;5.686;2023-06-22T11:11:52;28.00;95.80
56512;DHT22;42408;53.238;5.686;2023-06-22T11:14:21;28.00;95.40
56512;DHT22;42408;53.238;5.686;2023-06-22T11:16:47;28.00;97.20
56512;DHT22;42408;53.238;5.686;2023-06-22T11:19:12;27.90;95.50
56512;DHT22;42408;53.238;5.686;2023-06-22T11:21:38;27.80;95.60
56512;DHT22;42408;53.238;5.686;2023-06-22T11:24:04;27.80;96.30
56512;DHT22;42408;53.238;5.686;2023-06-22T11:26:29;27.70;94.50
56512;DHT22;42408;53.238;5.686;2023-06-22T11:28:57;27.70;94.80
56512;DHT22;42408;53.238;5.686;2023-06-22T11:31:22;27.60;94.90
56512;DHT22;42408;53.238;5.686;2023-06-22T11:33:48;27.70;95.40
56512;DHT22;42408;53.238;5.686;2023-06-22T11:36:14;27.60;94.60
56512;DHT22;42408;53.238;5.686;2023-06-22T11:38:39;27.50;95.70
56512;DHT22;42408;53.238;5.686;2023-06-22T11:41:09;27.40;94.70
56512;DHT22;42408;53.238;5.686;2023-06-22T11:43:35;27.40;95.00
56512;DHT22;42408;53.238;5.686;2023-06-22T11:46:01;27.30;95.20
56512;DHT22;42408;53.238;5.686;2023-06-22T11:48:27;27.30;95.30
56512;DHT22;42408;53.238;5.686;2023-06-22T11:50:53;27.40;96.90
56512;DHT22;42408;53.238;5.686;2023-06-22T11:53:20;27.50;95.80
56512;DHT22;42408;53.238;5.686;2023-06-22T11:55:46;27.60;94.10
56512;DHT22;42408;53.238;5.686;2023-06-22T11:58:12;27.70;94.30
56512;DHT22;42408;53.238;5.686;2023-06-22T12:00:37;27.80;96.00
56512;DHT22;42408;53.238;5.686;2023-06-22T12:03:03;27.90;94.60
56512;DHT22;42408;53.238;5.686;2023-06-22T12:05:28;27.90;95.60
56512;DHT22;42408;53.238;5.686;2023-06-22T12:07:54;27.90;97.10
56512;DHT22;42408;53.238;5.686;2023-06-22T12:10:20;27.90;93.10
56512;DHT22;42408;53.238;5.686;2023-06-22T12:12:46;27.90;94.00
56512;DHT22;42408;53.238;5.686;2023-06-22T12:15:12;28.00;94.20
56512;DHT22;42408;53.238;5.686;2023-06-22T12:17:37;28.00;95.80
56512;DHT22;42408;53.238;5.686;2023-06-22T12:20:03;28.00;92.80
56512;DHT22;42408;53.238;5.686;2023-06-22T12:22:31;28.00;92.80
56512;DHT22;42408;53.238;5.686;2023-06-22T12:24:57;27.90;94.10
56512;DHT22;42408;53.238;5.686;2023-06-22T12:27:22;27.80;92.50
56512;DHT22;42408;53.238;5.686;2023-06-22T12:29:48;27.70;92.50
56512;DHT22;42408;53.238;5.686;2023-06-22T12:32:13;27.60;93.10
56512;DHT22;42408;53.238;5.686;2023-06-22T12:34:39;27.50;92.90
56512;DHT22;42408;53.238;5.686;2023-06-22T12:37:05;27.50;92.40
56512;DHT22;42408;53.238;5.686;2023-06-22T12:39:31;27.40;92.80
56512;DHT22;42408;53.238;5.686;2023-06-22T12:41:57;27.30;92.00
56512;DHT22;42408;53.238;5.686;2023-06-22T12:44:22;27.20;92.40
56512;DHT22;42408;53.238;5.686;2023-06-22T12:46:48;27.00;92.30
56512;DHT22;42408;53.238;5.686;2023-06-22T12:49:13;26.90;91.80
56512;DHT22;42408;53.238;5.686;2023-06-22T12:51:40;26.90;94.00
56512;DHT22;42408;53.238;5.686;2023-06-22T12:54:06;26.80;91.90
56512;DHT22;42408;53.238;5.686;2023-06-22T12:56:32;26.70;92.10
56512;DHT22;42408;53.238;5.686;2023-06-22T12:58:57;26.60;91.50
56512;DHT22;42408;53.238;5.686;2023-06-22T13:01:23;26.60;91.50
56512;DHT22;42408;53.238;5.686;2023-06-22T13:03:49;26.50;92.30
56512;DHT22;42408;53.238;5.686;2023-06-22T13:06:15;26.40;93.00
56512;DHT22;42408;53.238;5.686;2023-06-22T13:08:40;26.30;92.10
56512;DHT22;42408;53.238;5.686;2023-06-22T13:11:06;26.10;92.80
56512;DHT22;42408;53.238;5.686;2023-06-22T13:13:31;26.10;93.50
56512;DHT22;42408;53.238;5.686;2023-06-22T13:15:59;25.90;93.60
56512;DHT22;42408;53.238;5.686;2023-06-22T13:18:24;25.70;93.80
56512;DHT22;42408;53.238;5.686;2023-06-22T13:20:50;25.50;93.80
56512;DHT22;42408;53.238;5.686;2023-06-22T13:23:15;25.30;93.60
56512;DHT22;42408;53.238;5.686;2023-06-22T13:25:41;25.20;94.40
56512;DHT22;42408;53.238;5.686;2023-06-22T13:28:06;25.10;93.40
56512;DHT22;42408;53.238;5.686;2023-06-22T13:30:32;25.00;94.20
56512;DHT22;42408;53.238;5.686;2023-06-22T13:32:58;24.80;94.00
56512;DHT22;42408;53.238;5.686;2023-06-22T13:35:23;24.70;93.50
56512;DHT22;42408;53.238;5.686;2023-06-22T13:37:49;24.70;93.10
56512;DHT22;42408;53.238;5.686;2023-06-22T13:40:14;24.50;92.90
56512;DHT22;42408;53.238;5.686;2023-06-22T13:42:40;24.50;93.20
56512;DHT22;42408;53.238;5.686;2023-06-22T13:45:06;24.30;93.50
56512;DHT22;42408;53.238;5.686;2023-06-22T13:47:31;24.30;94.40
56512;DHT22;42408;53.238;5.686;2023-06-22T13:49:57;24.30;93.50
56512;DHT22;42408;53.238;5.686;2023-06-22T13:52:23;24.30;93.20
56512;DHT22;42408;53.238;5.686;2023-06-22T13:54:48;24.30;94.00
56512;DHT22;42408;53.238;5.686;2023-06-22T13:57:14;24.20;94.40
56512;DHT22;42408;53.238;5.686;2023-06-22T13:59:39;24.20;93.80
56512;DHT22;42408;53.238;5.686;2023-06-22T14:02:05;24.10;94.30
56512;DHT22;42408;53.238;5.686;2023-06-22T14:04:31;24.10;94.10
56512;DHT22;42408;53.238;5.686;2023-06-22T14:06:56;24.00;94.40
56512;DHT22;42408;53.238;5.686;2023-06-22T14:09:22;23.90;94.00
56512;DHT22;42408;53.238;5.686;2023-06-22T14:11:48;23.80;94.40
56512;DHT22;42408;53.238;5.686;2023-06-22T14:14:13;23.80;94.50
56512;DHT22;42408;53.238;5.686;2023-06-22T14:16:39;23.70;94.60
56512;DHT22;42408;53.238;5.686;2023-06-22T14:19:04;23.60;94.90
56512;DHT22;42408;53.238;5.686;2023-06-22T14:21:30;23.60;94.60
56512;DHT22;42408;53.238;5.686;2023-06-22T14:23:55;23.50;95.00
56512;DHT22;42408;53.238;5.686;2023-06-22T14:26:21;23.50;95.40
56512;DHT22;42408;53.238;5.686;2023-06-22T14:28:48;23.40;96.10
56512;DHT22;42408;53.238;5.686;2023-06-22T14:31:15;23.30;96.40
56512;DHT22;42408;53.238;5.686;2023-06-22T14:33:44;23.30;95.90
56512;DHT22;42408;53.238;5.686;2023-06-22T14:36:10;23.30;96.60
56512;DHT22;42408;53.238;5.686;2023-06-22T14:38:36;23.20;96.50
56512;DHT22;42408;53.238;5.686;2023-06-22T14:41:01;23.20;96.70
56512;DHT22;42408;53.238;5.686;2023-06-22T14:43:27;23.10;96.40
56512;DHT22;42408;53.238;5.686;2023-06-22T14:45:52;23.00;96.30
56512;DHT22;42408;53.238;5.686;2023-06-22T14:48:18;22.90;97.00
56512;DHT22;42408;53.238;5.686;2023-06-22T14:50:43;22.90;96.90
56512;DHT22;42408;53.238;5.686;2023-06-22T14:53:09;22.80;96.70
56512;DHT22;42408;53.238;5.686;2023-06-22T14:55:35;22.80;97.10
56512;DHT22;42408;53.238;5.686;2023-06-22T14:58:00;22.70;97.10
56512;DHT22;42408;53.238;5.686;2023-06-22T15:00:26;22.80;97.10
56512;DHT22;42408;53.238;5.686;2023-06-22T15:02:51;22.80;98.00
56512;DHT22;42408;53.238;5.686;2023-06-22T15:05:17;22.80;97.80
56512;DHT22;42408;53.238;5.686;2023-06-22T15:07:42;22.80;97.70
56512;DHT22;42408;53.238;5.686;2023-06-22T15:10:08;22.80;97.10
56512;DHT22;42408;53.238;5.686;2023-06-22T15:12:34;22.80;97.00
56512;DHT22;42408;53.238;5.686;2023-06-22T15:15:00;22.80;97.70
56512;DHT22;42408;53.238;5.686;2023-06-22T15:17:25;22.70;97.70
56512;DHT22;42408;53.238;5.686;2023-06-22T15:19:55;22.70;97.30
56512;DHT22;42408;53.238;5.686;2023-06-22T15:22:20;22.70;97.50
56512;DHT22;42408;53.238;5.686;2023-06-22T15:24:46;22.60;97.40
56512;DHT22;42408;53.238;5.686;2023-06-22T15:27:13;22.60;97.20
56512;DHT22;42408;53.238;5.686;2023-06-22T15:29:39;22.60;97.30
56512;DHT22;42408;53.238;5.686;2023-06-22T15:32:05;22.50;97.20
56512;DHT22;42408;53.238;5.686;2023-06-22T15:34:31;22.50;96.90